Flugplatz Stuttgart

Bericht für EDDS

vom 02.06. um 23:20 UTC

variable Windrichtung mit 1 kt

Sichtweite 10 km oder mehr

gute Sicht, keine Wolken < 5000 ft, keine CB, keine Wettererscheinungen (CAVOK)

Temperatur 14.0°C

Taupunkt 8.0°C

Luftfeuchtigkeit 67%

Luftdruck 1012 hPa

EDDS 022320Z VRB01KT CAVOK 14/08 Q1012

Prognose für EDDS

vom 02.06. um 23:00 UTC

Zwischen 00:00 UTC und 09:00 UTC

variable Windrichtung mit 3 kt

Sichtweite 10 km oder mehr

keine signifikanten Wettererscheinungen

keine Wolken


Zwischen 09:00 und 11:00 UTC übergehend zu

Wind 5 kt aus 260°

Sichtweite 10 km oder mehr

keine signifikanten Wettererscheinungen

keine Wolken


Zwischen 12:00 UTC und 18:00 UTC zeitweise mit einer Wahrscheinlichkeit von 30%

Wind 20 kt aus 260° in Böen 35 kt

Code: TSRA

aufgebrochene Bewölkung in 5000 ft


Zwischen 18:00 und 20:00 UTC übergehend zu

variable Windrichtung mit 3 kt

Sichtweite 10 km oder mehr

keine signifikanten Wettererscheinungen

keine Wolken


Zwischen 18:00 UTC und 00:00 UTC zeitweise mit einer Wahrscheinlichkeit von 30%

Wind 15 kt aus 230° in Böen 25 kt

Regenschauer

aufgebrochene Bewölkung in 5000 ft

TAF EDDS 022300Z 0300/0324 VRB03KT CAVOK BECMG 0309/0311 26005KT PROB30 TEMPO 0312/0318 26020G35KT TSRA BKN050CB BECMG 0318/0320 VRB03KT PROB30 TEMPO 0318/0324 23015G25KT SHRA BKN050CB
Impressum